sensor_id;sensor_type;location;lat;lon;timestamp;pressure;altitude;pressure_sealevel;temperature;humidity
75991;BME280;64673;52.276;10.560;2023-02-18T00:01:12;101091.69;;;7.05;66.20
75991;BME280;64673;52.276;10.560;2023-02-18T00:03:38;101081.19;;;7.04;66.06
75991;BME280;64673;52.276;10.560;2023-02-18T00:06:16;101066.75;;;7.05;66.30
75991;BME280;64673;52.276;10.560;2023-02-18T00:08:42;101077.69;;;6.91;66.81
75991;BME280;64673;52.276;10.560;2023-02-18T00:11:08;101068.97;;;6.96;66.52
75991;BME280;64673;52.276;10.560;2023-02-18T00:13:34;101063.84;;;6.94;66.55
75991;BME280;64673;52.276;10.560;2023-02-18T00:16:09;101056.03;;;6.93;66.92
75991;BME280;64673;52.276;10.560;2023-02-18T00:18:36;101058.09;;;6.91;67.05
75991;BME280;64673;52.276;10.560;2023-02-18T00:21:05;101046.09;;;6.93;66.76
75991;BME280;64673;52.276;10.560;2023-02-18T00:23:32;101040.53;;;6.95;66.88
75991;BME280;64673;52.276;10.560;2023-02-18T00:26:03;101044.47;;;6.92;66.66
75991;BME280;64673;52.276;10.560;2023-02-18T00:28:30;101043.19;;;6.95;66.77
75991;BME280;64673;52.276;10.560;2023-02-18T00:30:55;101046.34;;;6.92;67.15
75991;BME280;64673;52.276;10.560;2023-02-18T00:33:21;101037.69;;;6.90;66.88
75991;BME280;64673;52.276;10.560;2023-02-18T00:35:46;101046.00;;;6.77;67.73
75991;BME280;64673;52.276;10.560;2023-02-18T00:38:12;101048.34;;;6.85;67.92
75991;BME280;64673;52.276;10.560;2023-02-18T00:40:38;101051.81;;;6.85;67.58
75991;BME280;64673;52.276;10.560;2023-02-18T00:43:04;101055.41;;;6.79;67.54
75991;BME280;64673;52.276;10.560;2023-02-18T00:45:29;101036.78;;;6.84;67.27
75991;BME280;64673;52.276;10.560;2023-02-18T00:47:54;101038.19;;;6.87;67.82
75991;BME280;64673;52.276;10.560;2023-02-18T00:50:20;101033.53;;;6.94;67.53
75991;BME280;64673;52.276;10.560;2023-02-18T00:52:45;101047.75;;;6.83;67.64
75991;BME280;64673;52.276;10.560;2023-02-18T00:55:10;101056.38;;;6.85;68.05
75991;BME280;64673;52.276;10.560;2023-02-18T00:57:35;101061.38;;;6.81;68.04
75991;BME280;64673;52.276;10.560;2023-02-18T01:00:03;101060.44;;;6.76;68.17
75991;BME280;64673;52.276;10.560;2023-02-18T01:02:29;101066.97;;;6.80;68.03
75991;BME280;64673;52.276;10.560;2023-02-18T01:04:54;101063.81;;;6.83;68.24
75991;BME280;64673;52.276;10.560;2023-02-18T01:07:20;101065.91;;;6.81;68.25
75991;BME280;64673;52.276;10.560;2023-02-18T01:09:45;101058.91;;;6.80;68.27
75991;BME280;64673;52.276;10.560;2023-02-18T01:12:10;101057.41;;;6.72;68.83
75991;BME280;64673;52.276;10.560;2023-02-18T01:14:36;101060.22;;;6.77;68.82
75991;BME280;64673;52.276;10.560;2023-02-18T01:17:01;101065.91;;;6.81;68.85
75991;BME280;64673;52.276;10.560;2023-02-18T01:19:26;101060.91;;;6.84;68.61
75991;BME280;64673;52.276;10.560;2023-02-18T01:21:52;101063.47;;;6.79;68.77
75991;BME280;64673;52.276;10.560;2023-02-18T01:24:17;101058.47;;;6.83;68.90
75991;BME280;64673;52.276;10.560;2023-02-18T01:26:42;101049.25;;;6.79;69.11
75991;BME280;64673;52.276;10.560;2023-02-18T01:29:08;101057.19;;;6.85;68.98
75991;BME280;64673;52.276;10.560;2023-02-18T01:31:33;101042.16;;;6.96;68.51
75991;BME280;64673;52.276;10.560;2023-02-18T01:33:58;101056.72;;;7.00;68.29
75991;BME280;64673;52.276;10.560;2023-02-18T01:36:24;101050.78;;;6.98;68.59
75991;BME280;64673;52.276;10.560;2023-02-18T01:38:49;101034.91;;;7.08;68.32
75991;BME280;64673;52.276;10.560;2023-02-18T01:41:15;101037.00;;;7.06;68.38
75991;BME280;64673;52.276;10.560;2023-02-18T01:43:40;101038.28;;;7.15;68.26
75991;BME280;64673;52.276;10.560;2023-02-18T01:56:41;101036.03;;;7.35;68.10
75991;BME280;64673;52.276;10.560;2023-02-18T01:59:11;101037.31;;;7.33;67.42
75991;BME280;64673;52.276;10.560;2023-02-18T02:01:41;101042.91;;;7.31;67.89
75991;BME280;64673;52.276;10.560;2023-02-18T02:04:07;101037.09;;;7.23;67.88
75991;BME280;64673;52.276;10.560;2023-02-18T02:06:33;101028.00;;;7.24;68.33
75991;BME280;64673;52.276;10.560;2023-02-18T02:09:01;101026.38;;;7.23;68.62
75991;BME280;64673;52.276;10.560;2023-02-18T02:12:30;101029.03;;;7.34;68.14
75991;BME280;64673;52.276;10.560;2023-02-18T02:15:03;101035.69;;;7.32;68.04
75991;BME280;64673;52.276;10.560;2023-02-18T02:48:26;101018.03;;;7.48;68.13
75991;BME280;64673;52.276;10.560;2023-02-18T02:51:08;101021.97;;;7.57;68.01
75991;BME280;64673;52.276;10.560;2023-02-18T02:53:36;101023.25;;;7.54;67.76
75991;BME280;64673;52.276;10.560;2023-02-18T02:56:04;101017.91;;;7.54;68.50
75991;BME280;64673;52.276;10.560;2023-02-18T02:58:29;101020.34;;;7.56;68.17
75991;BME280;64673;52.276;10.560;2023-02-18T03:01:14;101009.59;;;7.56;68.32
75991;BME280;64673;52.276;10.560;2023-02-18T03:12:35;101003.00;;;7.47;68.77
75991;BME280;64673;52.276;10.560;2023-02-18T03:15:25;101009.41;;;7.46;69.01
75991;BME280;64673;52.276;10.560;2023-02-18T03:17:57;101001.94;;;7.48;69.36
75991;BME280;64673;52.276;10.560;2023-02-18T03:20:30;101004.72;;;7.53;69.04
75991;BME280;64673;52.276;10.560;2023-02-18T03:23:00;100990.03;;;7.44;69.32
75991;BME280;64673;52.276;10.560;2023-02-18T03:25:29;100995.31;;;7.39;69.38
75991;BME280;64673;52.276;10.560;2023-02-18T03:27:59;100989.56;;;7.47;69.57
75991;BME280;64673;52.276;10.560;2023-02-18T03:30:35;100983.75;;;7.50;69.55
75991;BME280;64673;52.276;10.560;2023-02-18T03:33:04;100991.66;;;7.45;69.44
75991;BME280;64673;52.276;10.560;2023-02-18T03:35:31;100994.59;;;7.43;69.30
75991;BME280;64673;52.276;10.560;2023-02-18T03:40:28;100983.50;;;7.51;69.86
75991;BME280;64673;52.276;10.560;2023-02-18T03:42:55;100976.75;;;7.49;69.97
75991;BME280;64673;52.276;10.560;2023-02-18T03:45:21;100970.09;;;7.51;70.03
75991;BME280;64673;52.276;10.560;2023-02-18T03:47:46;100974.44;;;7.41;70.35
75991;BME280;64673;52.276;10.560;2023-02-18T03:50:12;100961.09;;;7.46;70.72
75991;BME280;64673;52.276;10.560;2023-02-18T03:52:37;100966.84;;;7.38;71.01
75991;BME280;64673;52.276;10.560;2023-02-18T03:55:03;100966.63;;;7.39;71.48
75991;BME280;64673;52.276;10.560;2023-02-18T03:57:29;100967.53;;;7.45;71.39
75991;BME280;64673;52.276;10.560;2023-02-18T03:59:54;100973.00;;;7.50;71.87
75991;BME280;64673;52.276;10.560;2023-02-18T04:02:19;100970.78;;;7.47;72.20
75991;BME280;64673;52.276;10.560;2023-02-18T04:04:45;100967.88;;;7.48;72.50
75991;BME280;64673;52.276;10.560;2023-02-18T04:07:10;100971.38;;;7.49;72.33
75991;BME280;64673;52.276;10.560;2023-02-18T04:09:35;100952.31;;;7.62;72.11
75991;BME280;64673;52.276;10.560;2023-02-18T04:12:01;100955.72;;;7.46;72.87
75991;BME280;64673;52.276;10.560;2023-02-18T04:14:26;100953.47;;;7.54;71.57
75991;BME280;64673;52.276;10.560;2023-02-18T04:16:51;100957.50;;;7.68;71.48
75991;BME280;64673;52.276;10.560;2023-02-18T04:19:17;100948.66;;;7.68;71.62
75991;BME280;64673;52.276;10.560;2023-02-18T04:21:42;100949.22;;;7.70;71.54
75991;BME280;64673;52.276;10.560;2023-02-18T04:24:07;100954.34;;;7.71;71.40
75991;BME280;64673;52.276;10.560;2023-02-18T04:26:33;100950.00;;;7.82;71.18
75991;BME280;64673;52.276;10.560;2023-02-18T04:28:58;100950.94;;;7.76;71.36
75991;BME280;64673;52.276;10.560;2023-02-18T04:31:23;100957.28;;;7.70;71.76
75991;BME280;64673;52.276;10.560;2023-02-18T04:33:49;100946.06;;;7.73;71.73
75991;BME280;64673;52.276;10.560;2023-02-18T04:36:14;100949.31;;;7.75;71.72
75991;BME280;64673;52.276;10.560;2023-02-18T04:38:39;100949.41;;;7.80;71.43
75991;BME280;64673;52.276;10.560;2023-02-18T04:41:06;100951.13;;;7.86;71.53
75991;BME280;64673;52.276;10.560;2023-02-18T04:43:31;100951.28;;;7.80;72.25
75991;BME280;64673;52.276;10.560;2023-02-18T04:45:56;100953.50;;;7.83;72.48
75991;BME280;64673;52.276;10.560;2023-02-18T04:48:22;100948.47;;;7.75;73.06
75991;BME280;64673;52.276;10.560;2023-02-18T04:50:48;100954.13;;;7.73;74.00
75991;BME280;64673;52.276;10.560;2023-02-18T04:53:13;100944.97;;;7.74;74.80
75991;BME280;64673;52.276;10.560;2023-02-18T04:55:38;100948.81;;;7.78;75.41
75991;BME280;64673;52.276;10.560;2023-02-18T04:58:04;100945.97;;;7.68;75.39
75991;BME280;64673;52.276;10.560;2023-02-18T05:00:29;100939.53;;;7.69;76.12
75991;BME280;64673;52.276;10.560;2023-02-18T05:02:55;100936.09;;;7.57;77.72
75991;BME280;64673;52.276;10.560;2023-02-18T05:05:20;100936.09;;;7.57;78.61
75991;BME280;64673;52.276;10.560;2023-02-18T05:07:46;100929.53;;;7.36;79.99
75991;BME280;64673;52.276;10.560;2023-02-18T05:10:15;100929.28;;;7.38;80.48
75991;BME280;64673;52.276;10.560;2023-02-18T05:12:41;100927.19;;;7.40;81.81
75991;BME280;64673;52.276;10.560;2023-02-18T05:15:06;100914.25;;;7.37;81.83
75991;BME280;64673;52.276;10.560;2023-02-18T05:17:32;100908.88;;;7.37;82.36
75991;BME280;64673;52.276;10.560;2023-02-18T05:19:57;100900.97;;;7.30;83.64
75991;BME280;64673;52.276;10.560;2023-02-18T05:22:23;100897.94;;;7.26;84.48
75991;BME280;64673;52.276;10.560;2023-02-18T05:24:49;100885.25;;;7.22;85.33
75991;BME280;64673;52.276;10.560;2023-02-18T05:27:14;100887.59;;;7.18;86.13
75991;BME280;64673;52.276;10.560;2023-02-18T05:29:39;100888.19;;;7.20;86.38
75991;BME280;64673;52.276;10.560;2023-02-18T05:32:04;100879.88;;;7.22;86.78
75991;BME280;64673;52.276;10.560;2023-02-18T05:34:30;100875.47;;;7.16;86.19
75991;BME280;64673;52.276;10.560;2023-02-18T05:36:55;100873.81;;;6.98;87.83
75991;BME280;64673;52.276;10.560;2023-02-18T05:39:20;100876.72;;;6.96;88.24
75991;BME280;64673;52.276;10.560;2023-02-18T05:41:46;100865.84;;;7.03;88.36
75991;BME280;64673;52.276;10.560;2023-02-18T05:44:11;100867.72;;;7.03;88.45
75991;BME280;64673;52.276;10.560;2023-02-18T05:47:08;100860.47;;;7.03;88.28
75991;BME280;64673;52.276;10.560;2023-02-18T05:49:35;100848.75;;;6.92;89.14
75991;BME280;64673;52.276;10.560;2023-02-18T05:52:01;100843.25;;;6.99;88.98
75991;BME280;64673;52.276;10.560;2023-02-18T05:54:27;100855.25;;;6.96;88.35
75991;BME280;64673;52.276;10.560;2023-02-18T05:56:53;100840.94;;;6.91;89.91
75991;BME280;64673;52.276;10.560;2023-02-18T05:59:19;100848.63;;;6.99;88.35
75991;BME280;64673;52.276;10.560;2023-02-18T06:01:45;100846.84;;;7.05;89.62
75991;BME280;64673;52.276;10.560;2023-02-18T06:04:11;100842.09;;;6.95;90.11
75991;BME280;64673;52.276;10.560;2023-02-18T06:06:37;100838.25;;;6.91;90.78
75991;BME280;64673;52.276;10.560;2023-02-18T06:09:04;100832.91;;;6.79;91.05
75991;BME280;64673;52.276;10.560;2023-02-18T06:11:29;100822.41;;;6.89;89.48
75991;BME280;64673;52.276;10.560;2023-02-18T06:13:54;100813.06;;;6.92;89.89
75991;BME280;64673;52.276;10.560;2023-02-18T06:16:20;100808.75;;;6.91;89.01
75991;BME280;64673;52.276;10.560;2023-02-18T06:18:45;100800.34;;;6.99;90.75
75991;BME280;64673;52.276;10.560;2023-02-18T06:21:10;100789.91;;;6.86;91.42
75991;BME280;64673;52.276;10.560;2023-02-18T06:23:36;100796.59;;;7.00;89.77
75991;BME280;64673;52.276;10.560;2023-02-18T06:26:01;100799.28;;;7.00;90.70
75991;BME280;64673;52.276;10.560;2023-02-18T06:28:26;100806.25;;;7.01;90.69
75991;BME280;64673;52.276;10.560;2023-02-18T06:30:52;100797.66;;;6.99;91.29
75991;BME280;64673;52.276;10.560;2023-02-18T06:33:17;100797.09;;;6.97;91.63
75991;BME280;64673;52.276;10.560;2023-02-18T06:36:03;100791.38;;;6.93;91.84
75991;BME280;64673;52.276;10.560;2023-02-18T06:38:33;100793.25;;;6.93;92.10
75991;BME280;64673;52.276;10.560;2023-02-18T06:40:59;100777.75;;;6.95;92.47
75991;BME280;64673;52.276;10.560;2023-02-18T06:43:25;100772.09;;;7.08;90.48
75991;BME280;64673;52.276;10.560;2023-02-18T06:45:50;100761.53;;;7.18;88.85
75991;BME280;64673;52.276;10.560;2023-02-18T06:48:16;100759.91;;;7.17;89.73
75991;BME280;64673;52.276;10.560;2023-02-18T06:50:41;100753.97;;;7.32;88.06
75991;BME280;64673;52.276;10.560;2023-02-18T06:53:07;100739.19;;;7.29;89.29
75991;BME280;64673;52.276;10.560;2023-02-18T06:55:32;100733.31;;;7.16;91.13
75991;BME280;64673;52.276;10.560;2023-02-18T06:57:57;100736.81;;;7.16;90.54
75991;BME280;64673;52.276;10.560;2023-02-18T07:00:23;100732.28;;;7.17;89.11
75991;BME280;64673;52.276;10.560;2023-02-18T07:02:48;100739.91;;;7.08;92.05
75991;BME280;64673;52.276;10.560;2023-02-18T07:05:14;100721.38;;;7.23;88.08
75991;BME280;64673;52.276;10.560;2023-02-18T07:07:39;100710.16;;;7.26;90.20
75991;BME280;64673;52.276;10.560;2023-02-18T07:10:05;100705.69;;;7.32;87.97
75991;BME280;64673;52.276;10.560;2023-02-18T07:12:31;100705.69;;;7.32;90.09
75991;BME280;64673;52.276;10.560;2023-02-18T07:14:56;100700.25;;;7.27;89.49
75991;BME280;64673;52.276;10.560;2023-02-18T07:17:22;100704.00;;;7.26;91.14
75991;BME280;64673;52.276;10.560;2023-02-18T07:19:47;100702.69;;;7.28;91.11
75991;BME280;64673;52.276;10.560;2023-02-18T07:22:12;100695.75;;;7.32;90.12
75991;BME280;64673;52.276;10.560;2023-02-18T07:24:38;100687.16;;;7.30;90.50
75991;BME280;64673;52.276;10.560;2023-02-18T07:27:03;100684.50;;;7.30;90.54
75991;BME280;64673;52.276;10.560;2023-02-18T07:29:28;100680.81;;;7.37;89.00
75991;BME280;64673;52.276;10.560;2023-02-18T07:31:54;100676.66;;;7.46;88.91
75991;BME280;64673;52.276;10.560;2023-02-18T07:34:19;100661.59;;;7.45;88.52
75991;BME280;64673;52.276;10.560;2023-02-18T07:36:44;100653.41;;;7.34;91.17
75991;BME280;64673;52.276;10.560;2023-02-18T07:39:10;100666.75;;;7.29;92.05
75991;BME280;64673;52.276;10.560;2023-02-18T07:41:35;100657.72;;;7.35;89.60
75991;BME280;64673;52.276;10.560;2023-02-18T07:44:01;100667.81;;;7.28;91.03
75991;BME280;64673;52.276;10.560;2023-02-18T07:46:26;100667.56;;;7.30;92.31
75991;BME280;64673;52.276;10.560;2023-02-18T07:48:51;100662.44;;;7.28;91.63
75991;BME280;64673;52.276;10.560;2023-02-18T07:51:17;100664.00;;;7.24;90.11
75991;BME280;64673;52.276;10.560;2023-02-18T07:53:42;100650.81;;;7.40;91.18
75991;BME280;64673;52.276;10.560;2023-02-18T07:56:08;100644.44;;;7.46;90.79
75991;BME280;64673;52.276;10.560;2023-02-18T07:58:35;100640.63;;;7.42;91.72
75991;BME280;64673;52.276;10.560;2023-02-18T08:01:10;100641.19;;;7.44;91.27
75991;BME280;64673;52.276;10.560;2023-02-18T08:03:35;100636.78;;;7.54;90.20
75991;BME280;64673;52.276;10.560;2023-02-18T08:06:03;100626.03;;;7.71;89.42
75991;BME280;64673;52.276;10.560;2023-02-18T08:08:30;100616.25;;;7.65;90.93
75991;BME280;64673;52.276;10.560;2023-02-18T08:10:59;100599.88;;;7.61;91.53
75991;BME280;64673;52.276;10.560;2023-02-18T08:13:29;100601.63;;;7.72;88.93
75991;BME280;64673;52.276;10.560;2023-02-18T08:15:55;100598.38;;;7.70;91.15
75991;BME280;64673;52.276;10.560;2023-02-18T08:18:21;100599.09;;;7.66;92.13
75991;BME280;64673;52.276;10.560;2023-02-18T08:20:48;100592.63;;;7.62;92.05
75991;BME280;64673;52.276;10.560;2023-02-18T08:23:14;100584.88;;;7.65;91.66
75991;BME280;64673;52.276;10.560;2023-02-18T08:25:44;100582.56;;;7.74;91.80
75991;BME280;64673;52.276;10.560;2023-02-18T08:28:10;100578.81;;;7.75;89.62
75991;BME280;64673;52.276;10.560;2023-02-18T08:30:36;100578.81;;;7.75;90.04
75991;BME280;64673;52.276;10.560;2023-02-18T08:33:01;100565.47;;;7.80;91.17
75991;BME280;64673;52.276;10.560;2023-02-18T08:35:26;100555.22;;;7.77;93.69
75991;BME280;64673;52.276;10.560;2023-02-18T08:37:52;100558.09;;;7.92;91.77
75991;BME280;64673;52.276;10.560;2023-02-18T08:40:17;100558.31;;;7.91;92.36
75991;BME280;64673;52.276;10.560;2023-02-18T08:42:42;100556.66;;;8.12;93.95
75991;BME280;64673;52.276;10.560;2023-02-18T08:45:08;100551.06;;;8.13;92.79
75991;BME280;64673;52.276;10.560;2023-02-18T08:47:33;100547.66;;;8.23;94.49
75991;BME280;64673;52.276;10.560;2023-02-18T08:49:58;100540.78;;;8.32;93.99
75991;BME280;64673;52.276;10.560;2023-02-18T08:52:24;100535.63;;;8.30;94.43
75991;BME280;64673;52.276;10.560;2023-02-18T08:54:50;100533.88;;;8.41;94.57
75991;BME280;64673;52.276;10.560;2023-02-18T08:57:15;100530.19;;;8.52;94.55
75991;BME280;64673;52.276;10.560;2023-02-18T08:59:41;100527.00;;;8.55;95.39
75991;BME280;64673;52.276;10.560;2023-02-18T09:02:06;100517.69;;;8.68;95.10
75991;BME280;64673;52.276;10.560;2023-02-18T09:04:31;100521.28;;;8.84;95.14
75991;BME280;64673;52.276;10.560;2023-02-18T09:06:57;100515.41;;;8.87;94.31
75991;BME280;64673;52.276;10.560;2023-02-18T09:09:22;100509.53;;;8.90;94.88
75991;BME280;64673;52.276;10.560;2023-02-18T09:11:48;100507.69;;;9.00;95.48
75991;BME280;64673;52.276;10.560;2023-02-18T09:14:13;100504.22;;;9.05;95.06
75991;BME280;64673;52.276;10.560;2023-02-18T09:16:40;100505.06;;;9.10;95.37
75991;BME280;64673;52.276;10.560;2023-02-18T09:19:06;100506.44;;;9.18;94.47
75991;BME280;64673;52.276;10.560;2023-02-18T09:21:31;100506.22;;;9.30;94.80
75991;BME280;64673;52.276;10.560;2023-02-18T09:23:57;100491.97;;;9.34;94.25
75991;BME280;64673;52.276;10.560;2023-02-18T09:26:23;100493.59;;;9.35;94.45
75991;BME280;64673;52.276;10.560;2023-02-18T09:28:52;100492.81;;;9.45;94.96
75991;BME280;64673;52.276;10.560;2023-02-18T09:31:19;100488.28;;;9.50;94.34
75991;BME280;64673;52.276;10.560;2023-02-18T09:33:46;100483.75;;;9.61;94.17
75991;BME280;64673;52.276;10.560;2023-02-18T09:36:12;100484.28;;;9.63;93.70
75991;BME280;64673;52.276;10.560;2023-02-18T09:38:38;100471.09;;;9.77;93.19
75991;BME280;64673;52.276;10.560;2023-02-18T09:41:06;100480.84;;;9.83;92.31
75991;BME280;64673;52.276;10.560;2023-02-18T09:43:39;100465.50;;;9.94;92.35
75991;BME280;64673;52.276;10.560;2023-02-18T09:46:17;100460.38;;;9.97;92.74
75991;BME280;64673;52.276;10.560;2023-02-18T09:48:43;100449.06;;;10.00;91.91
75991;BME280;64673;52.276;10.560;2023-02-18T09:51:15;100442.59;;;10.11;90.86
75991;BME280;64673;52.276;10.560;2023-02-18T09:53:42;100454.47;;;10.05;91.23
75991;BME280;64673;52.276;10.560;2023-02-18T09:56:12;100455.84;;;10.18;90.81
75991;BME280;64673;52.276;10.560;2023-02-18T09:58:39;100453.94;;;10.28;90.20
75991;BME280;64673;52.276;10.560;2023-02-18T10:03:35;100440.47;;;10.39;90.13
75991;BME280;64673;52.276;10.560;2023-02-18T10:06:13;100444.78;;;10.50;89.33
75991;BME280;64673;52.276;10.560;2023-02-18T10:08:47;100439.41;;;10.45;89.67
75991;BME280;64673;52.276;10.560;2023-02-18T10:11:22;100447.47;;;10.50;88.67
75991;BME280;64673;52.276;10.560;2023-02-18T10:13:49;100443.69;;;10.51;88.12
75991;BME280;64673;52.276;10.560;2023-02-18T10:16:17;100438.03;;;10.57;88.38
75991;BME280;64673;52.276;10.560;2023-02-18T10:18:45;100439.94;;;10.57;88.45
75991;BME280;64673;52.276;10.560;2023-02-18T10:21:16;100439.94;;;10.47;89.19
75991;BME280;64673;52.276;10.560;2023-02-18T10:27:17;100428.06;;;10.53;89.04
75991;BME280;64673;52.276;10.560;2023-02-18T10:29:43;100431.25;;;10.60;88.04
75991;BME280;64673;52.276;10.560;2023-02-18T10:32:24;100439.63;;;10.63;87.14
75991;BME280;64673;52.276;10.560;2023-02-18T10:34:57;100431.81;;;10.67;86.93
75991;BME280;64673;52.276;10.560;2023-02-18T10:43:15;100437.75;;;10.64;87.14
75991;BME280;64673;52.276;10.560;2023-02-18T10:45:55;100432.59;;;10.73;86.36
75991;BME280;64673;52.276;10.560;2023-02-18T10:51:25;100414.53;;;10.73;85.12
75991;BME280;64673;52.276;10.560;2023-02-18T10:53:53;100405.31;;;10.84;85.29
75991;BME280;64673;52.276;10.560;2023-02-18T10:59:11;100404.25;;;10.85;84.25
75991;BME280;64673;52.276;10.560;2023-02-18T11:01:39;100406.94;;;10.85;83.66
75991;BME280;64673;52.276;10.560;2023-02-18T11:04:15;100403.41;;;10.95;83.72
75991;BME280;64673;52.276;10.560;2023-02-18T11:06:45;100405.56;;;10.93;83.62
75991;BME280;64673;52.276;10.560;2023-02-18T11:12:23;100401.84;;;10.79;83.78
75991;BME280;64673;52.276;10.560;2023-02-18T11:17:39;100401.31;;;10.72;84.64
75991;BME280;64673;52.276;10.560;2023-02-18T11:22:48;100393.25;;;10.67;85.01
75991;BME280;64673;52.276;10.560;2023-02-18T11:27:51;100397.03;;;10.66;84.85
75991;BME280;64673;52.276;10.560;2023-02-18T11:30:35;100394.56;;;10.74;85.22
75991;BME280;64673;52.276;10.560;2023-02-18T11:33:09;100390.81;;;10.60;85.63
75991;BME280;64673;52.276;10.560;2023-02-18T11:35:50;100394.06;;;10.57;85.54
75991;BME280;64673;52.276;10.560;2023-02-18T11:38:27;100390.03;;;10.49;86.40
75991;BME280;64673;52.276;10.560;2023-02-18T11:41:02;100391.66;;;10.40;85.98
75991;BME280;64673;52.276;10.560;2023-02-18T11:43:32;100386.31;;;10.35;86.81
75991;BME280;64673;52.276;10.560;2023-02-18T11:48:33;100376.34;;;10.20;86.58
75991;BME280;64673;52.276;10.560;2023-02-18T11:51:00;100380.91;;;10.20;87.77
75991;BME280;64673;52.276;10.560;2023-02-18T11:55:57;100380.09;;;10.19;88.52
75991;BME280;64673;52.276;10.560;2023-02-18T11:58:25;100375.25;;;10.11;88.24
75991;BME280;64673;52.276;10.560;2023-02-18T12:00:55;100396.25;;;10.14;89.27
75991;BME280;64673;52.276;10.560;2023-02-18T12:03:47;100381.44;;;10.17;87.22
75991;BME280;64673;52.276;10.560;2023-02-18T12:06:24;100390.63;;;10.21;86.73
75991;BME280;64673;52.276;10.560;2023-02-18T12:09:02;100387.13;;;10.25;86.84
75991;BME280;64673;52.276;10.560;2023-02-18T12:11:34;100403.00;;;10.12;86.25
75991;BME280;64673;52.276;10.560;2023-02-18T12:14:01;100380.63;;;10.16;87.20
75991;BME280;64673;52.276;10.560;2023-02-18T12:16:38;100400.03;;;9.98;86.41
75991;BME280;64673;52.276;10.560;2023-02-18T12:27:40;100361.50;;;9.98;87.60
75991;BME280;64673;52.276;10.560;2023-02-18T12:36:24;100370.94;;;9.85;88.57
75991;BME280;64673;52.276;10.560;2023-02-18T12:55:17;100372.28;;;9.82;86.64
75991;BME280;64673;52.276;10.560;2023-02-18T13:00:40;100355.84;;;9.74;88.02
75991;BME280;64673;52.276;10.560;2023-02-18T13:06:01;100381.69;;;9.65;90.19
75991;BME280;64673;52.276;10.560;2023-02-18T13:08:53;100374.66;;;9.53;89.51
75991;BME280;64673;52.276;10.560;2023-02-18T13:14:23;100388.41;;;9.52;90.67
75991;BME280;64673;52.276;10.560;2023-02-18T13:16:54;100383.28;;;9.55;90.47
75991;BME280;64673;52.276;10.560;2023-02-18T13:19:24;100406.97;;;9.53;89.63
75991;BME280;64673;52.276;10.560;2023-02-18T13:21:53;100391.38;;;9.61;89.28
75991;BME280;64673;52.276;10.560;2023-02-18T13:24:32;100394.06;;;9.61;88.96
75991;BME280;64673;52.276;10.560;2023-02-18T13:32:37;100389.75;;;9.75;87.08
75991;BME280;64673;52.276;10.560;2023-02-18T13:35:28;100393.03;;;9.82;87.82
75991;BME280;64673;52.276;10.560;2023-02-18T13:40:43;100413.50;;;9.83;87.85
75991;BME280;64673;52.276;10.560;2023-02-18T13:43:35;100410.53;;;9.89;87.75
75991;BME280;64673;52.276;10.560;2023-02-18T13:49:17;100411.06;;;9.86;86.88
75991;BME280;64673;52.276;10.560;2023-02-18T13:51:46;100402.72;;;9.88;86.37
75991;BME280;64673;52.276;10.560;2023-02-18T13:56:45;100411.03;;;9.76;88.03
75991;BME280;64673;52.276;10.560;2023-02-18T13:59:16;100408.88;;;9.68;88.24
75991;BME280;64673;52.276;10.560;2023-02-18T14:01:45;100407.00;;;9.59;89.15
75991;BME280;64673;52.276;10.560;2023-02-18T14:09:58;100422.88;;;9.65;89.63
75991;BME280;64673;52.276;10.560;2023-02-18T14:14:59;100422.63;;;9.67;89.42
75991;BME280;64673;52.276;10.560;2023-02-18T14:17:31;100421.25;;;9.64;89.05
75991;BME280;64673;52.276;10.560;2023-02-18T14:25:02;100434.47;;;9.71;89.35
75991;BME280;64673;52.276;10.560;2023-02-18T14:27:28;100436.09;;;9.72;89.23
75991;BME280;64673;52.276;10.560;2023-02-18T14:29:54;100435.53;;;9.65;90.33
75991;BME280;64673;52.276;10.560;2023-02-18T14:32:19;100450.03;;;9.53;90.19
75991;BME280;64673;52.276;10.560;2023-02-18T14:43:25;100463.84;;;9.72;90.33
75991;BME280;64673;52.276;10.560;2023-02-18T14:51:28;100471.66;;;9.74;89.88
75991;BME280;64673;52.276;10.560;2023-02-18T14:53:54;100473.25;;;9.75;89.74
75991;BME280;64673;52.276;10.560;2023-02-18T14:56:20;100469.50;;;9.86;89.56
75991;BME280;64673;52.276;10.560;2023-02-18T14:58:49;100468.69;;;9.75;89.80
75991;BME280;64673;52.276;10.560;2023-02-18T15:01:22;100477.56;;;9.71;90.41
75991;BME280;64673;52.276;10.560;2023-02-18T15:03:49;100482.94;;;9.61;91.37
75991;BME280;64673;52.276;10.560;2023-02-18T15:08:56;100480.25;;;9.66;91.01
75991;BME280;64673;52.276;10.560;2023-02-18T15:11:34;100490.47;;;9.59;91.12
75991;BME280;64673;52.276;10.560;2023-02-18T15:13:59;100493.97;;;9.64;90.94
75991;BME280;64673;52.276;10.560;2023-02-18T15:16:32;100498.53;;;9.59;91.61
75991;BME280;64673;52.276;10.560;2023-02-18T15:19:00;100494.75;;;9.54;91.78
75991;BME280;64673;52.276;10.560;2023-02-18T15:21:32;100494.50;;;9.61;90.95
75991;BME280;64673;52.276;10.560;2023-02-18T15:24:05;100500.69;;;9.57;91.15
75991;BME280;64673;52.276;10.560;2023-02-18T15:26:31;100500.16;;;9.65;90.35
75991;BME280;64673;52.276;10.560;2023-02-18T15:29:03;100504.22;;;9.67;90.36
75991;BME280;64673;52.276;10.560;2023-02-18T15:31:35;100508.81;;;9.77;89.94
75991;BME280;64673;52.276;10.560;2023-02-18T15:34:01;100513.16;;;9.88;88.69
75991;BME280;64673;52.276;10.560;2023-02-18T15:36:26;100548.66;;;9.75;87.75
75991;BME280;64673;52.276;10.560;2023-02-18T15:38:53;100505.63;;;9.85;87.74
75991;BME280;64673;52.276;10.560;2023-02-18T15:41:20;100504.00;;;9.84;87.32
75991;BME280;64673;52.276;10.560;2023-02-18T15:44:04;100507.78;;;9.83;87.21